createdAt,value
2022-11-17T00:02:08.619Z,97958.47
2022-11-17T00:04:35.364Z,97944.19
2022-11-17T00:07:02.174Z,97937.84
2022-11-17T00:09:28.934Z,97937.84
2022-11-17T00:12:16.968Z,97931.50
2022-11-17T00:14:45.917Z,97934.66
2022-11-17T00:17:13.683Z,97925.94
2022-11-17T00:19:59.178Z,97917.19
2022-11-17T00:22:26.595Z,97926.72
2022-11-17T00:24:53.268Z,97932.72
2022-11-17T00:27:20.106Z,97917.59
2022-11-17T00:29:47.286Z,97914.00
2022-11-17T00:32:34.290Z,97910.03
2022-11-17T00:35:01.235Z,97898.09
2022-11-17T00:37:30.265Z,97907.69
2022-11-17T00:40:00.766Z,97912.03
2022-11-17T00:42:28.081Z,97909.28
2022-11-17T00:44:54.958Z,97910.88
2022-11-17T00:47:21.847Z,97914.84
2022-11-17T00:49:49.036Z,97899.34
2022-11-17T00:52:15.876Z,97903.34
2022-11-17T00:54:42.572Z,97900.56
2022-11-17T00:57:09.382Z,97900.94
2022-11-17T00:59:36.120Z,97897.34
2022-11-17T01:02:03.062Z,97883.03
2022-11-17T01:04:29.904Z,97880.66
2022-11-17T01:06:56.752Z,97879.88
2022-11-17T01:09:24.242Z,97881.84
2022-11-17T01:11:53.130Z,97869.91
2022-11-17T01:14:25.085Z,97856.00
2022-11-17T01:16:52.179Z,97856.03
2022-11-17T01:19:19.519Z,97852.03
2022-11-17T01:21:46.972Z,97847.66
2022-11-17T01:24:16.408Z,97844.50
2022-11-17T01:26:43.662Z,97847.28
2022-11-17T01:29:13.080Z,97840.50
2022-11-17T01:31:43.283Z,97832.97
2022-11-17T01:34:10.554Z,97830.97
2022-11-17T01:36:58.578Z,97821.03
2022-11-17T01:39:27.609Z,97818.69
2022-11-17T01:41:55.380Z,97816.28
2022-11-17T01:44:53.227Z,97811.56
2022-11-17T01:47:22.112Z,97809.97
2022-11-17T01:49:52.173Z,97809.16
2022-11-17T01:52:19.246Z,97811.94
2022-11-17T01:54:48.845Z,97802.81
2022-11-17T01:57:43.233Z,97804.03
2022-11-17T02:00:11.611Z,97796.06
2022-11-17T02:02:41.074Z,97798.84
2022-11-17T02:05:26.406Z,97804.03
2022-11-17T02:07:55.381Z,97802.81
2022-11-17T02:10:22.286Z,97794.88
2022-11-17T02:12:49.753Z,97788.91
2022-11-17T02:15:16.865Z,97780.97
2022-11-17T02:17:44.345Z,97779.78
2022-11-17T02:20:36.258Z,97779.00
2022-11-17T02:23:35.705Z,97784.50
2022-11-17T02:26:31.458Z,97762.69
2022-11-17T02:29:09.573Z,97749.97
2022-11-17T02:31:52.181Z,97759.91
2022-11-17T02:34:18.990Z,97754.34
2022-11-17T02:36:58.996Z,97736.13
2022-11-17T02:39:28.349Z,97747.19
2022-11-17T02:42:01.337Z,97747.22
2022-11-17T02:44:45.475Z,97734.91
2022-11-17T02:47:24.388Z,97728.50
2022-11-17T02:50:01.032Z,97725.72
2022-11-17T02:52:30.213Z,97720.59
2022-11-17T02:55:05.569Z,97724.13
2022-11-17T02:57:35.538Z,97721.00
2022-11-17T03:00:09.747Z,97704.31
2022-11-17T03:02:58.151Z,97710.69
2022-11-17T03:05:34.594Z,97699.19
2022-11-17T03:08:13.632Z,97695.16
2022-11-17T03:11:02.940Z,97694.75
2022-11-17T03:13:54.708Z,97689.22
2022-11-17T03:16:57.309Z,97686.06
2022-11-17T03:19:37.994Z,97690.81
2022-11-17T03:22:23.379Z,97691.63
2022-11-17T03:24:52.880Z,97688.88
2022-11-17T03:27:25.561Z,97692.44
2022-11-17T03:29:56.267Z,97684.09
2022-11-17T03:32:25.054Z,97682.13
2022-11-17T03:35:06.105Z,97685.28
2022-11-17T03:37:36.638Z,97678.91
2022-11-17T03:40:08.783Z,97680.53
2022-11-17T03:42:39.410Z,97673.38
2022-11-17T03:45:06.696Z,97668.59
2022-11-17T03:47:35.051Z,97670.19
2022-11-17T03:50:16.648Z,97667.03
2022-11-17T03:52:45.677Z,97672.59
2022-11-17T03:55:14.029Z,97667.84
2022-11-17T03:57:51.829Z,97656.75
2022-11-17T04:00:20.008Z,97659.06
2022-11-17T04:02:53.677Z,97649.13
2022-11-17T04:05:20.405Z,97640.00
2022-11-17T04:07:49.128Z,97635.69
2022-11-17T04:10:22.184Z,97633.63
2022-11-17T04:13:08.235Z,97629.69
2022-11-17T04:15:54.041Z,97632.88
2022-11-17T04:18:22.015Z,97637.25
2022-11-17T04:20:56.048Z,97636.91
2022-11-17T04:23:24.586Z,97625.78
2022-11-17T04:26:12.314Z,97636.84
2022-11-17T04:28:43.949Z,97641.28
2022-11-17T04:31:13.978Z,97645.66
2022-11-17T04:33:45.440Z,97648.84
2022-11-17T04:36:14.160Z,97654.38
2022-11-17T04:38:42.995Z,97662.31
2022-11-17T04:41:30.017Z,97652.78
2022-11-17T04:43:57.895Z,97661.94
2022-11-17T04:46:25.849Z,97667.84
2022-11-17T04:48:56.969Z,97665.91
2022-11-17T04:51:24.866Z,97663.09
2022-11-17T04:53:52.389Z,97665.50
2022-11-17T04:56:20.475Z,97669.47
2022-11-17T04:58:47.591Z,97654.41
2022-11-17T05:01:16.570Z,97659.59
2022-11-17T05:03:43.209Z,97652.78
2022-11-17T05:06:18.660Z,97656.00
2022-11-17T05:08:45.596Z,97661.56
2022-11-17T05:11:32.403Z,97664.72
2022-11-17T05:13:59.678Z,97671.47
2022-11-17T05:16:45.477Z,97672.25
2022-11-17T05:19:18.474Z,97671.09
2022-11-17T05:21:45.390Z,97682.19
2022-11-17T05:24:14.397Z,97681.41
2022-11-17T05:26:42.899Z,97689.31
2022-11-17T05:29:11.711Z,97689.34
2022-11-17T05:31:38.923Z,97687.34
2022-11-17T05:34:08.341Z,97692.94
2022-11-17T05:36:35.567Z,97693.69
2022-11-17T05:39:02.426Z,97695.28
2022-11-17T05:41:29.257Z,97697.28
2022-11-17T05:43:56.230Z,97708.81
2022-11-17T05:46:23.549Z,97705.22
2022-11-17T05:48:51.311Z,97708.44
2022-11-17T05:51:20.426Z,97717.16
2022-11-17T05:53:48.747Z,97714.38
2022-11-17T05:56:25.302Z,97721.91
2022-11-17T05:58:55.262Z,97734.59
2022-11-17T06:01:23.092Z,97730.63
2022-11-17T06:03:56.193Z,97736.97
2022-11-17T06:06:23.449Z,97736.19
2022-11-17T06:08:51.013Z,97747.28
2022-11-17T06:11:19.094Z,97744.16
2022-11-17T06:13:46.064Z,97750.50
2022-11-17T06:16:16.280Z,97752.91
2022-11-17T06:18:50.683Z,97764.81
2022-11-17T06:21:17.982Z,97769.59
2022-11-17T06:23:47.438Z,97765.63
2022-11-17T06:26:14.961Z,97768.03
2022-11-17T06:28:45.595Z,97775.19
2022-11-17T06:31:13.339Z,97772.78
2022-11-17T06:33:40.191Z,97783.09
2022-11-17T06:36:08.790Z,97795.81
2022-11-17T06:38:36.556Z,97795.00
2022-11-17T06:41:08.893Z,97800.56
2022-11-17T06:43:38.809Z,97802.97
2022-11-17T06:46:06.068Z,97799.81
2022-11-17T06:48:36.329Z,97797.38
2022-11-17T06:51:05.190Z,97800.56
2022-11-17T06:53:34.070Z,97806.94
2022-11-17T06:56:11.861Z,97811.66
2022-11-17T06:58:41.440Z,97810.84
2022-11-17T07:01:11.396Z,97812.84
2022-11-17T07:03:40.214Z,97812.84
2022-11-17T07:06:08.998Z,97823.16
2022-11-17T07:08:36.436Z,97831.06
2022-11-17T07:11:05.431Z,97837.41
2022-11-17T07:13:33.676Z,97842.59
2022-11-17T07:16:23.758Z,97844.94
2022-11-17T07:18:52.481Z,97848.91
2022-11-17T07:21:19.465Z,97845.75
2022-11-17T07:23:47.354Z,97850.50
2022-11-17T07:26:14.510Z,97862.38
2022-11-17T07:28:44.438Z,97854.41
2022-11-17T07:31:12.553Z,97848.47
2022-11-17T07:33:44.852Z,97848.09
2022-11-17T07:36:21.758Z,97852.03
2022-11-17T07:38:48.940Z,97863.97
2022-11-17T07:41:21.594Z,97857.59
2022-11-17T07:43:48.447Z,97867.53
2022-11-17T07:46:15.483Z,97877.50
2022-11-17T07:48:43.788Z,97874.28
2022-11-17T07:51:14.191Z,97885.00
2022-11-17T07:53:47.209Z,97881.03
2022-11-17T07:56:14.485Z,97884.63
2022-11-17T07:58:42.013Z,97899.72
2022-11-17T08:01:14.715Z,97901.69
2022-11-17T08:03:42.956Z,97905.69
2022-11-17T08:06:14.872Z,97901.31
2022-11-17T08:08:48.547Z,97910.03
2022-11-17T08:11:19.666Z,97904.47
2022-11-17T08:13:58.299Z,97901.69
2022-11-17T08:16:36.147Z,97913.25
2022-11-17T08:19:07.480Z,97916.03
2022-11-17T08:21:38.660Z,97923.56
2022-11-17T08:24:06.420Z,97925.16
2022-11-17T08:26:36.536Z,97910.84
2022-11-17T08:29:03.593Z,97930.31
2022-11-17T08:31:33.117Z,97927.16
2022-11-17T08:34:08.616Z,97927.94
2022-11-17T08:36:38.922Z,97923.94
2022-11-17T08:39:08.196Z,97935.50
2022-11-17T08:41:40.902Z,97929.94
2022-11-17T08:44:07.868Z,97936.69
2022-11-17T08:46:34.791Z,97934.69
2022-11-17T08:49:02.076Z,97935.50
2022-11-17T08:51:33.600Z,97937.91
2022-11-17T08:54:00.734Z,97945.06
2022-11-17T08:56:29.978Z,97949.03
2022-11-17T08:58:57.227Z,97945.44
2022-11-17T09:01:24.123Z,97943.47
2022-11-17T09:03:56.661Z,97949.41
2022-11-17T09:06:27.881Z,97959.34
2022-11-17T09:08:55.560Z,97949.44
2022-11-17T09:11:22.960Z,97952.56
2022-11-17T09:13:49.810Z,97958.56
2022-11-17T09:16:23.964Z,97963.31
2022-11-17T09:19:02.477Z,97952.19
2022-11-17T09:21:36.952Z,97954.56
2022-11-17T09:24:21.245Z,97967.28
2022-11-17T09:26:48.560Z,97976.00
2022-11-17T09:29:15.442Z,97972.03
2022-11-17T09:31:45.275Z,97987.16
2022-11-17T09:34:16.834Z,97988.72
2022-11-17T09:36:46.190Z,97982.75
2022-11-17T09:39:13.144Z,97992.72
2022-11-17T09:41:46.345Z,98006.19
2022-11-17T09:44:28.439Z,98018.09
2022-11-17T09:47:01.535Z,98016.53
2022-11-17T09:49:47.184Z,98012.56
2022-11-17T09:52:52.723Z,98012.53
2022-11-17T09:55:33.943Z,98020.53
2022-11-17T09:58:06.131Z,98015.34
2022-11-17T10:00:41.846Z,98022.91
2022-11-17T10:03:21.268Z,98020.13
2022-11-17T10:05:49.466Z,98027.66
2022-11-17T10:08:28.831Z,98020.13
2022-11-17T10:10:55.639Z,98036.03
2022-11-17T10:13:28.053Z,98038.00
2022-11-17T10:16:07.614Z,98039.56
2022-11-17T10:18:42.823Z,98043.53
2022-11-17T10:21:09.756Z,98041.56
2022-11-17T10:23:47.153Z,98044.72
2022-11-17T10:26:15.828Z,98054.28
2022-11-17T10:28:44.619Z,98055.06
2022-11-17T10:31:17.323Z,98045.94
2022-11-17T10:33:51.719Z,98047.50
2022-11-17T10:36:26.813Z,98054.69
2022-11-17T10:38:56.051Z,98058.63
2022-11-17T10:41:26.923Z,98055.06
2022-11-17T10:44:13.522Z,98053.88
2022-11-17T10:47:03.023Z,98059.44
2022-11-17T10:49:35.394Z,98063.41
2022-11-17T10:52:13.773Z,98061.81
2022-11-17T10:54:41.062Z,98063.41
2022-11-17T10:57:12.486Z,98062.19
2022-11-17T10:59:43.629Z,98062.56
2022-11-17T11:02:33.060Z,98069.38
2022-11-17T11:05:17.260Z,98074.50
2022-11-17T11:07:44.630Z,98072.91
2022-11-17T11:10:17.573Z,98080.88
2022-11-17T11:12:59.392Z,98073.31
2022-11-17T11:15:34.545Z,98079.66
2022-11-17T11:18:02.057Z,98069.31
2022-11-17T11:20:48.278Z,98087.59
2022-11-17T11:23:20.028Z,98092.75
2022-11-17T11:26:11.594Z,98076.00
2022-11-17T11:28:54.264Z,98083.97
2022-11-17T11:31:36.553Z,98088.69
2022-11-17T11:34:19.670Z,98078.31
2022-11-17T11:37:04.001Z,98087.06
2022-11-17T11:39:39.896Z,98084.25
2022-11-17T11:42:34.664Z,98090.22
2022-11-17T11:45:18.390Z,98090.97
2022-11-17T11:48:01.195Z,98095.75
2022-11-17T11:50:41.880Z,98090.94
2022-11-17T11:53:18.925Z,98096.50
2022-11-17T11:55:49.705Z,98106.06
2022-11-17T11:58:23.872Z,98103.34
2022-11-17T12:00:53.890Z,98108.13
2022-11-17T12:03:28.539Z,98106.94
2022-11-17T12:06:40.909Z,98114.94
2022-11-17T12:09:48.733Z,98114.94
2022-11-17T12:12:19.615Z,98108.19
2022-11-17T12:15:21.946Z,98097.47
2022-11-17T12:18:29.470Z,98103.84
2022-11-17T12:21:01.324Z,98114.56
2022-11-17T12:23:38.297Z,98118.16
2022-11-17T12:26:05.559Z,98112.59
2022-11-17T12:28:38.363Z,98113.41
2022-11-17T12:31:32.156Z,98113.38
2022-11-17T12:34:01.756Z,98122.19
2022-11-17T12:36:32.158Z,98113.78
2022-11-17T12:39:01.237Z,98112.22
2022-11-17T12:41:49.259Z,98111.03
2022-11-17T12:44:37.687Z,98111.84
2022-11-17T12:47:14.138Z,98110.63
2022-11-17T12:49:49.024Z,98114.22
2022-11-17T12:52:27.083Z,98114.63
2022-11-17T12:55:05.935Z,98117.41
2022-11-17T12:57:34.335Z,98118.22
2022-11-17T13:00:05.572Z,98115.00
2022-11-17T13:02:47.597Z,98126.16
2022-11-17T13:05:20.339Z,98125.34
2022-11-17T13:07:47.304Z,98126.53
2022-11-17T13:10:31.653Z,98126.53
2022-11-17T13:13:20.642Z,98119.78
2022-11-17T13:15:58.897Z,98121.38
2022-11-17T13:18:36.479Z,98132.50
2022-11-17T13:21:05.494Z,98134.13
2022-11-17T13:23:33.754Z,98138.09
2022-11-17T13:26:26.904Z,98134.91
2022-11-17T13:29:24.279Z,98129.72
2022-11-17T13:32:14.860Z,98138.91
2022-11-17T13:34:52.549Z,98131.72
2022-11-17T13:37:25.681Z,98136.50
2022-11-17T13:39:58.882Z,98138.47
2022-11-17T13:42:29.387Z,98142.88
2022-11-17T13:44:59.254Z,98134.91
2022-11-17T13:47:38.029Z,98144.47
2022-11-17T13:50:26.835Z,98136.44
2022-11-17T13:53:12.120Z,98143.63
2022-11-17T13:55:48.394Z,98144.44
2022-11-17T13:58:28.076Z,98146.81
2022-11-17T14:00:57.835Z,98148.00
2022-11-17T14:03:38.115Z,98147.59
2022-11-17T14:06:07.857Z,98139.66
2022-11-17T14:08:36.607Z,98145.59
2022-11-17T14:11:12.003Z,98154.75
2022-11-17T14:14:12.491Z,98159.97
2022-11-17T14:16:41.680Z,98155.53
2022-11-17T14:19:14.392Z,98157.94
2022-11-17T14:22:27.557Z,98167.47
2022-11-17T14:24:57.788Z,98179.44
2022-11-17T14:27:27.674Z,98170.69
2022-11-17T14:29:55.220Z,98178.25
2022-11-17T14:32:22.015Z,98181.03
2022-11-17T14:34:49.080Z,98177.44
2022-11-17T14:37:16.165Z,98189.81
2022-11-17T14:39:43.430Z,98184.25
2022-11-17T14:42:13.860Z,98190.59
2022-11-17T14:44:40.779Z,98194.59
2022-11-17T14:47:07.859Z,98201.34
2022-11-17T14:49:34.599Z,98206.50
2022-11-17T14:52:02.753Z,98207.31
2022-11-17T14:54:29.688Z,98209.34
2022-11-17T14:56:56.550Z,98208.91
2022-11-17T14:59:23.314Z,98212.13
2022-11-17T15:01:50.044Z,98213.69
2022-11-17T15:04:48.125Z,98211.72
2022-11-17T15:07:03.735Z,98212.50
2022-11-17T15:09:30.635Z,98221.66
2022-11-17T15:11:57.540Z,98224.03
2022-11-17T15:14:24.852Z,98220.88
2022-11-17T15:16:52.255Z,98231.22
2022-11-17T15:19:19.332Z,98226.84
2022-11-17T15:21:46.128Z,98228.84
2022-11-17T15:24:13.676Z,98232.03
2022-11-17T15:26:40.842Z,98235.22
2022-11-17T15:29:07.627Z,98237.59
2022-11-17T15:31:34.840Z,98234.00
2022-11-17T15:34:01.777Z,98237.59
2022-11-17T15:36:28.526Z,98243.16
2022-11-17T15:38:56.499Z,98237.59
2022-11-17T15:41:25.454Z,98241.56
2022-11-17T15:43:55.526Z,98240.41
2022-11-17T15:46:22.791Z,98242.78
2022-11-17T15:48:52.573Z,98247.97
2022-11-17T15:51:24.698Z,98252.72
2022-11-17T15:53:53.462Z,98249.94
2022-11-17T15:56:28.692Z,98244.78
2022-11-17T15:58:58.259Z,98253.50
2022-11-17T16:01:25.057Z,98251.94
2022-11-17T16:03:53.388Z,98259.09
2022-11-17T16:06:20.703Z,98255.13
2022-11-17T16:08:47.458Z,98257.91
2022-11-17T16:11:14.204Z,98258.31
2022-11-17T16:13:41.088Z,98267.88
2022-11-17T16:16:12.267Z,98270.66
2022-11-17T16:18:39.371Z,98267.03
2022-11-17T16:21:11.850Z,98271.84
2022-11-17T16:23:49.656Z,98275.81
2022-11-17T16:26:18.155Z,98283.78
2022-11-17T16:28:48.759Z,98277.81
2022-11-17T16:31:24.793Z,98280.19
2022-11-17T16:33:58.972Z,98287.75
2022-11-17T16:36:35.844Z,98288.19
2022-11-17T16:39:05.112Z,98287.75
2022-11-17T16:41:34.416Z,98298.94
2022-11-17T16:44:01.935Z,98301.31
2022-11-17T16:46:30.593Z,98306.09
2022-11-17T16:49:01.911Z,98310.09
2022-11-17T16:51:28.837Z,98304.09
2022-11-17T16:54:00.880Z,98308.50
2022-11-17T16:56:28.340Z,98309.25
2022-11-17T16:58:55.394Z,98302.13
2022-11-17T17:01:24.585Z,98306.88
2022-11-17T17:03:59.600Z,98304.09
2022-11-17T17:06:27.332Z,98305.28
2022-11-17T17:08:55.974Z,98306.91
2022-11-17T17:11:23.232Z,98302.91
2022-11-17T17:13:50.368Z,98307.69
2022-11-17T17:16:19.733Z,98301.72
2022-11-17T17:18:46.534Z,98306.88
2022-11-17T17:21:18.894Z,98304.50
2022-11-17T17:23:46.195Z,98296.16
2022-11-17T17:26:17.557Z,98304.50
2022-11-17T17:28:48.733Z,98303.72
2022-11-17T17:31:21.972Z,98320.44
2022-11-17T17:33:50.809Z,98314.47
2022-11-17T17:36:22.474Z,98315.63
2022-11-17T17:38:55.409Z,98322.03
2022-11-17T17:41:25.286Z,98319.25
2022-11-17T17:43:58.352Z,98317.25
2022-11-17T17:46:26.079Z,98322.00
2022-11-17T17:48:52.979Z,98328.38
2022-11-17T17:51:21.414Z,98333.94
2022-11-17T17:53:50.244Z,98334.72
2022-11-17T17:56:19.688Z,98341.09
2022-11-17T17:58:48.795Z,98344.31
2022-11-17T18:01:20.996Z,98346.69
2022-11-17T18:04:11.264Z,98355.88
2022-11-17T18:06:42.836Z,98356.66
2022-11-17T18:09:10.953Z,98359.44
2022-11-17T18:11:45.772Z,98355.06
2022-11-17T18:14:13.457Z,98356.66
2022-11-17T18:16:40.964Z,98361.81
2022-11-17T18:19:09.349Z,98369.00
2022-11-17T18:21:36.580Z,98361.81
2022-11-17T18:24:04.294Z,98362.22
2022-11-17T18:26:35.641Z,98368.19
2022-11-17T18:29:05.035Z,98370.22
2022-11-17T18:31:33.824Z,98378.56
2022-11-17T18:34:03.737Z,98368.19
2022-11-17T18:36:30.989Z,98372.19
2022-11-17T18:38:58.758Z,98382.56
2022-11-17T18:41:27.338Z,98382.53
2022-11-17T18:43:54.970Z,98387.31
2022-11-17T18:46:23.551Z,98389.72
2022-11-17T18:48:51.911Z,98398.88
2022-11-17T18:51:21.423Z,98399.66
2022-11-17T18:53:50.063Z,98406.84
2022-11-17T18:56:19.277Z,98410.44
2022-11-17T18:58:46.472Z,98425.53
2022-11-17T19:01:17.213Z,98418.78
2022-11-17T19:03:45.952Z,98420.75
2022-11-17T19:06:14.213Z,98425.53
2022-11-17T19:08:41.474Z,98426.34
2022-11-17T19:11:09.746Z,98426.34
2022-11-17T19:13:39.166Z,98426.31
2022-11-17T19:16:09.373Z,98429.09
2022-11-17T19:18:36.698Z,98436.69
2022-11-17T19:21:12.228Z,98440.66
2022-11-17T19:23:44.414Z,98438.25
2022-11-17T19:26:16.222Z,98435.09
2022-11-17T19:28:44.340Z,98431.06
2022-11-17T19:31:14.056Z,98439.81
2022-11-17T19:33:42.156Z,98438.22
2022-11-17T19:36:18.122Z,98451.81
2022-11-17T19:38:48.363Z,98451.78
2022-11-17T19:41:21.334Z,98450.19
2022-11-17T19:43:48.943Z,98440.63
2022-11-17T19:46:17.222Z,98450.97
2022-11-17T19:48:44.555Z,98450.16
2022-11-17T19:51:31.781Z,98456.94
2022-11-17T19:54:02.274Z,98460.09
2022-11-17T19:56:29.360Z,98457.72
2022-11-17T19:58:58.017Z,98477.22
2022-11-17T20:01:27.680Z,98468.47
2022-11-17T20:03:55.812Z,98465.28
2022-11-17T20:06:27.378Z,98470.84
2022-11-17T20:08:56.111Z,98474.81
2022-11-17T20:11:27.862Z,98476.41
2022-11-17T20:13:56.199Z,98476.41
2022-11-17T20:16:27.410Z,98483.22
2022-11-17T20:19:00.292Z,98480.38
2022-11-17T20:21:29.260Z,98480.00
2022-11-17T20:23:57.462Z,98481.16
2022-11-17T20:26:27.469Z,98479.22
2022-11-17T20:28:55.354Z,98484.78
2022-11-17T20:31:24.528Z,98480.38
2022-11-17T20:33:52.321Z,98493.91
2022-11-17T20:36:21.517Z,98490.75
2022-11-17T20:38:52.553Z,98493.13
2022-11-17T20:41:21.090Z,98491.09
2022-11-17T20:43:49.986Z,98497.06
2022-11-17T20:46:17.614Z,98489.50
2022-11-17T20:48:44.880Z,98493.19
2022-11-17T20:51:14.982Z,98499.97
2022-11-17T20:53:42.038Z,98504.38
2022-11-17T20:56:10.423Z,98500.00
2022-11-17T20:58:37.409Z,98508.38
2022-11-17T21:01:16.033Z,98515.53
2022-11-17T21:03:43.658Z,98513.97
2022-11-17T21:06:11.431Z,98520.34
2022-11-17T21:08:40.047Z,98516.38
2022-11-17T21:11:09.913Z,98522.34
2022-11-17T21:13:37.969Z,98517.97
2022-11-17T21:16:06.557Z,98518.78
2022-11-17T21:18:34.104Z,98523.97
2022-11-17T21:21:02.591Z,98529.94
2022-11-17T21:23:29.298Z,98529.94
2022-11-17T21:25:56.426Z,98534.69
2022-11-17T21:28:23.354Z,98539.47
2022-11-17T21:30:50.817Z,98547.44
2022-11-17T21:33:17.723Z,98549.06
2022-11-17T21:35:44.515Z,98552.19
2022-11-17T21:38:11.389Z,98553.03
2022-11-17T21:40:38.366Z,98554.22
2022-11-17T21:43:05.215Z,98565.78
2022-11-17T21:45:32.975Z,98558.22
2022-11-17T21:47:59.899Z,98558.59
2022-11-17T21:50:27.029Z,98563.00
2022-11-17T21:52:53.789Z,98565.38
2022-11-17T21:55:20.572Z,98571.38
2022-11-17T21:57:50.499Z,98569.75
2022-11-17T22:00:17.960Z,98570.53
2022-11-17T22:02:44.761Z,98568.88
2022-11-17T22:05:11.978Z,98575.69
2022-11-17T22:07:39.010Z,98582.03
2022-11-17T22:10:06.182Z,98582.41
2022-11-17T22:12:33.109Z,98586.75
2022-11-17T22:14:59.966Z,98586.38
2022-11-17T22:17:26.938Z,98579.16
2022-11-17T22:19:53.660Z,98585.53
2022-11-17T22:22:20.443Z,98583.50
2022-11-17T22:24:49.974Z,98587.84
2022-11-17T22:27:16.946Z,98580.66
2022-11-17T22:29:43.715Z,98594.19
2022-11-17T22:32:10.689Z,98597.34
2022-11-17T22:34:37.448Z,98599.34
2022-11-17T22:37:04.224Z,98600.47
2022-11-17T22:39:30.987Z,98602.84
2022-11-17T22:41:57.713Z,98607.59
2022-11-17T22:44:25.077Z,98611.56
2022-11-17T22:46:51.941Z,98614.78
2022-11-17T22:49:19.062Z,98615.56
2022-11-17T22:52:04.173Z,98614.72
2022-11-17T22:54:31.577Z,98611.53
2022-11-17T22:56:58.781Z,98616.28
2022-11-17T22:59:27.222Z,98622.66
2022-11-17T23:01:54.530Z,98622.63
2022-11-17T23:04:23.137Z,98615.47
2022-11-17T23:06:49.977Z,98626.59
2022-11-17T23:09:16.759Z,98621.81
2022-11-17T23:11:43.843Z,98628.16
2022-11-17T23:14:12.741Z,98619.38
2022-11-17T23:16:40.330Z,98630.09
2022-11-17T23:19:09.465Z,98630.88
2022-11-17T23:21:36.493Z,98633.66
2022-11-17T23:24:04.396Z,98628.06
2022-11-17T23:26:31.206Z,98632.41
2022-11-17T23:28:58.293Z,98644.75
2022-11-17T23:31:27.330Z,98648.69
2022-11-17T23:33:54.243Z,98657.06
2022-11-17T23:36:22.252Z,98654.22
2022-11-17T23:38:50.533Z,98643.50
2022-11-17T23:41:19.951Z,98653.41
2022-11-17T23:43:46.918Z,98654.19
2022-11-17T23:46:15.905Z,98662.13
2022-11-17T23:48:43.968Z,98660.91
2022-11-17T23:51:13.946Z,98663.72
2022-11-17T23:53:41.531Z,98663.66
2022-11-17T23:56:08.906Z,98663.25
2022-11-17T23:58:36.135Z,98665.22
